Time;durP1;ratioP1;P1;durP2;ratioP2;P2;SDS_P1;SDS_P2;PMS_P1;PMS_P2;Temp;Humidity;BMP_temperature;BMP_pressure;BME280_temperature;BME280_humidity;BME280_pressure;Samples;Min_cycle;Max_cycle;Signal;HPM_P1;HPM_P2
2023/04/03 00:01:23;;;;;;;13.70;8.25;;;;;;;0.05;100.00;102981.00;4979548;28;20833;-92
2023/04/03 00:03:48;;;;;;;14.27;8.27;;;;;;;0.03;100.00;102982.56;4961742;28;20089;-92
2023/04/03 00:06:14;;;;;;;13.32;8.00;;;;;;;-0.01;100.00;102984.97;4977515;28;20022;-92
2023/04/03 00:08:40;;;;;;;11.98;7.47;;;;;;;0.04;100.00;103000.50;4978383;28;20047;-93
2023/04/03 00:11:06;;;;;;;13.00;7.80;;;;;;;-0.08;100.00;102984.56;4978014;28;20495;-92
2023/04/03 00:13:33;;;;;;;13.35;7.68;;;;;;;-0.10;100.00;102984.47;4963995;28;20114;-91
2023/04/03 00:15:59;;;;;;;15.23;8.07;;;;;;;0.02;100.00;103003.75;4974834;28;20551;-93
2023/04/03 00:18:24;;;;;;;13.13;7.97;;;;;;;-0.05;100.00;102994.91;4980774;28;20617;-92
2023/04/03 00:20:50;;;;;;;14.43;8.27;;;;;;;-0.14;100.00;102971.50;4967964;28;20064;-93
2023/04/03 00:23:16;;;;;;;15.70;8.15;;;;;;;-0.07;100.00;102999.91;4983639;28;20030;-93
2023/04/03 00:25:41;;;;;;;13.93;8.30;;;;;;;-0.09;100.00;103004.06;4982570;28;20548;-92
2023/04/03 00:28:07;;;;;;;16.10;8.82;;;;;;;-0.06;100.00;103011.00;4982768;28;20495;-92
2023/04/03 00:30:32;;;;;;;14.75;9.00;;;;;;;-0.19;100.00;102983.09;4982323;28;20031;-92
2023/04/03 00:32:58;;;;;;;15.15;9.05;;;;;;;-0.16;100.00;102993.47;4968650;28;20041;-92
2023/04/03 00:35:24;;;;;;;18.00;9.00;;;;;;;-0.19;100.00;102989.06;4979755;28;20118;-92
2023/04/03 00:37:54;;;;;;;16.17;8.75;;;;;;;-0.10;100.00;103009.97;4981311;28;20038;-92
2023/04/03 00:40:22;;;;;;;17.95;8.43;;;;;;;-0.21;100.00;102983.03;4981954;28;20050;-93
2023/04/03 00:42:51;;;;;;;15.45;8.60;;;;;;;-0.09;100.00;103008.28;4979612;28;20026;-92
2023/04/03 00:45:27;;;;;;;15.48;8.57;;;;;;;-0.23;100.00;102999.00;4980144;28;20474;-93
2023/04/03 00:47:53;;;;;;;15.88;8.82;;;;;;;-0.14;100.00;103007.16;4996283;28;20041;-93
2023/04/03 00:50:18;;;;;;;14.25;8.40;;;;;;;-0.13;100.00;103019.09;4962604;28;20046;-92
2023/04/03 00:52:46;;;;;;;13.48;8.43;;;;;;;-0.24;100.00;102995.59;4980073;28;20286;-92
2023/04/03 00:55:14;;;;;;;15.05;8.10;;;;;;;-0.19;100.00;103013.66;4980350;28;20387;-92
2023/04/03 00:57:44;;;;;;;14.68;8.27;;;;;;;-0.10;100.00;103020.16;4967982;28;20137;-92
2023/04/03 01:00:14;;;;;;;12.20;7.80;;;;;;;-0.26;100.00;102998.84;4981319;28;20030;-93
2023/04/03 01:02:42;;;;;;;14.52;7.60;;;;;;;-0.24;100.00;103015.09;4981080;28;20045;-92
2023/04/03 01:05:08;;;;;;;13.32;7.57;;;;;;;-0.21;100.00;103018.72;4981103;28;20110;-93
2023/04/03 01:07:35;;;;;;;12.57;7.45;;;;;;;-0.26;100.00;103012.44;4980598;28;20623;-92
2023/04/03 01:10:07;;;;;;;14.95;8.00;;;;;;;-0.21;100.00;103026.34;4968653;28;20022;-92
2023/04/03 01:12:35;;;;;;;15.77;7.85;;;;;;;-0.36;100.00;103001.69;4981180;28;20125;-92
2023/04/03 01:15:07;;;;;;;13.63;7.88;;;;;;;-0.30;100.00;103015.63;4968403;28;20023;-92
2023/04/03 01:17:40;;;;;;;14.82;7.70;;;;;;;-0.18;100.00;103035.81;4981176;28;20033;-93
2023/04/03 01:20:28;;;;;;;15.60;8.63;;;;;;;-0.14;100.00;103036.09;4967367;28;20556;-92
2023/04/03 01:23:12;;;;;;;14.73;7.88;;;;;;;-0.09;100.00;103031.22;4978479;28;20070;-92
2023/04/03 01:25:46;;;;;;;14.80;8.10;;;;;;;-0.09;100.00;103027.00;4980995;28;20439;-92
2023/04/03 01:28:15;;;;;;;15.52;8.38;;;;;;;-0.07;100.00;103020.31;4977343;28;20062;-92
2023/04/03 01:31:00;;;;;;;14.25;8.02;;;;;;;0.04;100.00;103031.09;4980649;28;20030;-92
2023/04/03 01:33:26;;;;;;;12.20;7.35;;;;;;;0.04;100.00;103025.13;4980201;28;20449;-92
2023/04/03 01:35:51;;;;;;;12.07;7.57;;;;;;;0.03;100.00;103021.69;4980305;28;20474;-92
2023/04/03 01:38:17;;;;;;;12.90;7.47;;;;;;;0.14;100.00;103037.56;4980945;28;20039;-92
2023/04/03 01:40:42;;;;;;;13.77;7.43;;;;;;;0.12;100.00;103018.78;4978571;28;20031;-92
2023/04/03 01:43:08;;;;;;;13.05;7.45;;;;;;;0.04;100.00;103007.28;4959930;28;20019;-92
2023/04/03 01:45:33;;;;;;;12.93;7.55;;;;;;;0.01;100.00;103018.16;4961352;28;20589;-93
2023/04/03 01:47:59;;;;;;;13.57;7.25;;;;;;;0.09;100.00;103033.88;4980024;28;20034;-92
2023/04/03 01:50:24;;;;;;;13.75;7.05;;;;;;;0.01;100.00;103023.28;4980794;28;20027;-93
2023/04/03 01:52:50;;;;;;;12.10;7.18;;;;;;;-0.04;100.00;103017.94;4980732;28;20030;-93
2023/04/03 01:55:15;;;;;;;14.85;7.55;;;;;;;0.08;100.00;103037.22;4979790;28;20067;-92
2023/04/03 01:57:41;;;;;;;12.07;7.32;;;;;;;0.05;100.00;103025.22;4966889;28;20026;-92
2023/04/03 02:00:07;;;;;;;13.45;6.93;;;;;;;0.08;100.00;103025.34;4979647;28;20060;-92
2023/04/03 02:02:33;;;;;;;12.25;7.15;;;;;;;0.19;100.00;103025.94;4977268;28;20031;-92
2023/04/03 02:04:58;;;;;;;11.60;7.05;;;;;;;0.16;100.00;103020.69;4979769;28;20072;-93
2023/04/03 02:07:24;;;;;;;12.15;6.55;;;;;;;0.27;100.00;103032.34;4979076;28;20043;-92
2023/04/03 02:09:49;;;;;;;12.98;6.88;;;;;;;0.32;100.00;103025.81;4978343;28;20061;-92
2023/04/03 02:12:14;;;;;;;15.02;6.72;;;;;;;0.44;100.00;103035.78;4977131;28;20026;-92
2023/04/03 02:14:40;;;;;;;12.15;6.30;;;;;;;0.37;100.00;103034.56;4994322;28;20084;-92
2023/04/03 02:17:08;;;;;;;8.77;5.72;;;;;;;0.42;100.00;103034.81;4979813;28;20371;-92
2023/04/03 02:19:35;;;;;;;11.25;6.15;;;;;;;0.51;100.00;103048.06;4977703;28;20026;-92
2023/04/03 02:22:01;;;;;;;10.43;5.68;;;;;;;0.49;100.00;103039.44;4993516;28;20049;-92
2023/04/03 02:24:27;;;;;;;12.43;5.88;;;;;;;0.47;100.00;103035.94;4978253;28;20026;-92
2023/04/03 02:26:52;;;;;;;10.93;6.32;;;;;;;0.54;100.00;103044.00;4993844;28;20035;-92
2023/04/03 02:29:18;;;;;;;8.48;5.22;;;;;;;0.55;100.00;103044.84;4993569;28;20030;-92
2023/04/03 02:31:43;;;;;;;7.88;4.72;;;;;;;0.47;100.00;103029.19;4979871;28;20577;-92
2023/04/03 02:34:09;;;;;;;9.50;5.50;;;;;;;0.55;100.00;103035.53;4959916;28;20574;-92
2023/04/03 02:36:34;;;;;;;11.63;5.47;;;;;;;0.61;100.00;103042.66;4978664;28;20029;-92
2023/04/03 02:39:00;;;;;;;10.02;4.88;;;;;;;0.67;100.00;103050.63;4961211;28;20081;-92
2023/04/03 02:41:31;;;;;;;9.82;5.10;;;;;;;0.67;100.00;103054.06;4979559;28;20033;-92
2023/04/03 02:43:57;;;;;;;9.10;4.93;;;;;;;0.53;100.00;103032.03;4977181;28;20471;-92
2023/04/03 02:46:22;;;;;;;9.85;5.10;;;;;;;0.62;100.00;103050.34;4966305;28;20053;-92
2023/04/03 02:48:48;;;;;;;12.77;5.55;;;;;;;0.56;100.00;103036.41;4992745;28;20022;-92
2023/04/03 02:51:13;;;;;;;9.93;5.00;;;;;;;0.60;100.00;103046.00;4978069;28;20054;-93
2023/04/03 02:53:39;;;;;;;9.77;5.05;;;;;;;0.57;100.00;103045.81;4977777;28;20570;-92
2023/04/03 02:56:04;;;;;;;8.02;4.57;;;;;;;0.62;100.00;103052.91;4979714;28;20451;-92
2023/04/03 02:58:30;;;;;;;10.82;5.03;;;;;;;0.66;100.00;103062.50;4992954;28;20065;-92
2023/04/03 03:00:55;;;;;;;8.57;4.65;;;;;;;0.58;100.00;103051.00;4994989;28;20040;-92
2023/04/03 03:03:21;;;;;;;7.25;4.53;;;;;;;0.56;100.00;103067.91;4979644;28;20422;-92
2023/04/03 03:05:47;;;;;;;8.20;4.13;;;;;;;0.55;100.00;103063.59;4959607;28;20483;-92
2023/04/03 03:08:13;;;;;;;9.15;4.38;;;;;;;0.38;100.00;103037.22;4992618;28;20046;-93
2023/04/03 03:10:39;;;;;;;8.50;4.50;;;;;;;0.47;100.00;103048.69;4993952;28;20124;-92
2023/04/03 03:13:04;;;;;;;8.05;4.00;;;;;;;0.55;100.00;103055.94;4960412;28;20030;-93
2023/04/03 03:15:30;;;;;;;7.70;4.40;;;;;;;0.49;100.00;103058.16;4960663;28;20026;-91
2023/04/03 03:17:55;;;;;;;7.50;4.13;;;;;;;0.38;100.00;103051.63;4977997;28;20084;-94
2023/04/03 03:20:21;;;;;;;11.35;4.38;;;;;;;0.43;100.00;103047.66;4979825;28;20194;-92
2023/04/03 03:22:46;;;;;;;8.30;4.40;;;;;;;0.44;100.00;103054.50;4977469;28;20034;-93
2023/04/03 03:25:11;;;;;;;7.57;4.25;;;;;;;0.41;100.00;103043.28;4993784;28;20505;-92
2023/04/03 03:27:37;;;;;;;6.35;4.15;;;;;;;0.39;100.00;103038.97;4979557;28;20039;-92
2023/04/03 03:30:03;;;;;;;7.97;3.80;;;;;;;0.43;100.00;103042.53;4979242;28;20105;-92
2023/04/03 03:32:29;;;;;;;10.07;3.90;;;;;;;0.47;100.00;103059.78;4978260;28;20498;-92
2023/04/03 03:34:54;;;;;;;6.22;3.80;;;;;;;0.41;100.00;103054.34;4978469;28;20034;-92
2023/04/03 03:37:20;;;;;;;9.55;4.25;;;;;;;0.34;100.00;103055.69;4978218;28;20027;-92
2023/04/03 03:39:45;;;;;;;10.45;4.00;;;;;;;0.38;100.00;103057.63;4965666;28;20041;-92
2023/04/03 03:42:11;;;;;;;7.10;3.45;;;;;;;0.38;100.00;103059.28;4993208;28;20030;-93
2023/04/03 03:44:36;;;;;;;7.97;4.05;;;;;;;0.34;100.00;103054.84;4994035;28;20069;-92
2023/04/03 03:47:02;;;;;;;7.90;3.92;;;;;;;0.37;100.00;103060.97;4964755;28;20225;-92
2023/04/03 03:49:28;;;;;;;5.95;3.65;;;;;;;0.49;100.00;103087.91;4979043;28;20378;-92
2023/04/03 03:51:56;;;;;;;6.22;3.60;;;;;;;0.46;100.00;103078.44;4977901;28;20624;-92
2023/04/03 03:54:21;;;;;;;7.07;3.50;;;;;;;0.45;100.00;103083.44;4978543;28;20026;-93
2023/04/03 03:56:47;;;;;;;7.40;3.75;;;;;;;0.41;100.00;103081.53;4977371;28;20022;-92
2023/04/03 03:59:12;;;;;;;7.50;3.60;;;;;;;0.34;100.00;103072.69;4961107;28;20030;-92
2023/04/03 04:01:38;;;;;;;9.85;3.50;;;;;;;0.38;100.00;103095.00;4979153;28;20026;-92
2023/04/03 04:04:03;;;;;;;6.13;3.45;;;;;;;0.33;100.00;103088.78;4966121;28;20061;-92
2023/04/03 04:06:29;;;;;;;7.90;3.35;;;;;;;0.17;100.00;103074.31;4959572;28;20018;-92
2023/04/03 04:08:54;;;;;;;8.77;3.72;;;;;;;0.28;100.00;103093.59;4977063;28;20046;-93
2023/04/03 04:11:21;;;;;;;7.90;3.47;;;;;;;0.24;100.00;103086.59;4992380;28;20410;-92
2023/04/03 04:13:46;;;;;;;6.75;3.88;;;;;;;0.10;100.00;103069.66;4992649;28;20461;-92
2023/04/03 04:16:14;;;;;;;8.50;3.58;;;;;;;0.07;100.00;103076.28;4993020;28;20019;-91
2023/04/03 04:18:42;;;;;;;8.60;3.70;;;;;;;0.08;100.00;103085.66;4965584;28;20479;-92
2023/04/03 04:21:07;;;;;;;7.10;3.75;;;;;;;0.04;100.00;103083.75;4965954;28;20022;-92
2023/04/03 04:23:33;;;;;;;6.88;3.45;;;;;;;0.04;100.00;103086.31;4977835;28;20045;-93
2023/04/03 04:25:58;;;;;;;7.82;3.85;;;;;;;0.05;100.00;103088.94;4975355;28;20100;-93
2023/04/03 04:28:24;;;;;;;6.55;3.67;;;;;;;0.03;100.00;103092.19;4978174;28;20045;-92
2023/04/03 04:30:49;;;;;;;7.70;3.95;;;;;;;0.05;100.00;103100.81;4976993;28;20526;-93
2023/04/03 04:33:15;;;;;;;7.43;3.83;;;;;;;0.02;100.00;103088.75;4992664;28;20555;-92
2023/04/03 04:35:43;;;;;;;6.93;3.42;;;;;;;-0.11;100.00;103078.69;4978583;28;20034;-92
2023/04/03 04:38:09;;;;;;;8.63;3.60;;;;;;;-0.10;100.00;103085.53;4976191;28;20042;-92
2023/04/03 04:40:35;;;;;;;8.27;3.50;;;;;;;-0.13;100.00;103087.91;4964783;28;20026;-89
2023/04/03 04:43:00;;;;;;;6.05;3.47;;;;;;;-0.09;100.00;103095.84;4978027;28;20031;-89
2023/04/03 04:45:26;;;;;;;7.55;3.60;;;;;;;-0.09;100.00;103106.03;4976968;28;20022;-89
2023/04/03 04:47:52;;;;;;;6.88;3.55;;;;;;;-0.19;100.00;103085.91;4963701;28;20030;-89
2023/04/03 04:50:18;;;;;;;7.45;3.40;;;;;;;-0.14;100.00;103097.25;4978358;28;20049;-89
2023/04/03 04:52:44;;;;;;;7.20;3.30;;;;;;;-0.13;100.00;103093.00;4977771;28;20026;-89
2023/04/03 04:55:09;;;;;;;7.07;3.70;;;;;;;-0.17;100.00;103080.91;4977620;28;20062;-89
2023/04/03 04:57:38;;;;;;;7.43;3.60;;;;;;;-0.04;100.00;103106.28;4977434;28;20030;-89
2023/04/03 05:00:04;;;;;;;7.05;3.47;;;;;;;-0.09;100.00;103105.16;4976439;28;20077;-89
2023/04/03 05:02:30;;;;;;;7.93;3.67;;;;;;;-0.01;100.00;103111.56;4977379;28;20067;-89
2023/04/03 05:04:56;;;;;;;8.13;3.60;;;;;;;-0.04;100.00;103108.81;4980894;28;20061;-89
2023/04/03 05:07:22;;;;;;;9.85;3.80;;;;;;;0.00;100.00;103113.31;4963199;28;20046;-89
2023/04/03 05:09:47;;;;;;;7.05;3.70;;;;;;;-0.08;100.00;103105.25;4981441;28;20053;-92
2023/04/03 05:12:13;;;;;;;7.13;3.40;;;;;;;-0.12;100.00;103087.13;4979897;28;20030;-92
2023/04/03 05:14:38;;;;;;;6.50;3.50;;;;;;;-0.03;100.00;103108.91;4981179;28;20105;-92
2023/04/03 05:17:03;;;;;;;8.02;3.38;;;;;;;-0.11;100.00;103093.97;4995483;28;20022;-93
2023/04/03 05:19:29;;;;;;;8.88;3.20;;;;;;;-0.02;100.00;103105.56;4995531;28;20027;-92
2023/04/03 05:21:54;;;;;;;6.90;3.33;;;;;;;0.02;100.00;103113.38;4962393;28;20030;-92
2023/04/03 05:24:20;;;;;;;7.00;3.25;;;;;;;-0.04;100.00;103098.63;4963235;28;21106;-93
2023/04/03 05:26:45;;;;;;;6.22;3.33;;;;;;;0.02;100.00;103096.41;4980070;28;20065;-92
2023/04/03 05:29:13;;;;;;;9.48;3.67;;;;;;;0.06;100.00;103106.00;4968064;28;20030;-93
2023/04/03 05:31:39;;;;;;;10.10;3.20;;;;;;;0.19;100.00;103122.84;4980571;28;20029;-92
2023/04/03 05:34:05;;;;;;;7.20;3.10;;;;;;;0.16;100.00;103112.47;4978551;28;20018;-92
2023/04/03 05:36:33;;;;;;;7.88;2.90;;;;;;;0.20;100.00;103117.84;4980750;28;20031;-92
2023/04/03 05:38:59;;;;;;;10.07;3.30;;;;;;;0.26;100.00;103112.19;4961367;28;20414;-92
2023/04/03 05:41:24;;;;;;;7.10;3.13;;;;;;;0.23;100.00;103110.34;4979571;28;20509;-92
2023/04/03 05:43:53;;;;;;;6.25;3.47;;;;;;;0.28;100.00;103111.47;4980624;28;20034;-94
2023/04/03 05:46:20;;;;;;;6.80;3.00;;;;;;;0.32;100.00;103113.41;4979128;28;20038;-93
2023/04/03 05:48:45;;;;;;;8.68;3.08;;;;;;;0.60;100.00;103141.28;4978234;28;20038;-89
2023/04/03 05:51:23;;;;;;;8.68;3.10;;;;;;;0.69;100.00;103116.22;4960558;28;20124;-89
2023/04/03 05:53:52;;;;;;;7.22;3.10;;;;;;;1.16;100.00;103143.41;4979111;28;20114;-89
2023/04/03 05:56:17;;;;;;;6.25;2.83;;;;;;;1.55;100.00;103118.97;4966429;28;20038;-89
2023/04/03 05:58:43;;;;;;;7.90;2.90;;;;;;;1.80;100.00;103119.38;4978965;28;20655;-89
2023/04/03 06:01:08;;;;;;;5.85;2.58;;;;;;;1.69;100.00;103135.88;4979825;28;20030;-89
2023/04/03 06:03:33;;;;;;;6.63;2.50;;;;;;;1.42;100.00;103125.16;4979171;28;20049;-88
2023/04/03 06:05:59;;;;;;;6.65;2.83;;;;;;;1.47;100.00;103140.72;4967336;28;20549;-89
2023/04/03 06:08:25;;;;;;;5.63;2.40;;;;;;;1.40;100.00;103143.75;4993386;28;20042;-89
2023/04/03 06:10:51;;;;;;;6.32;2.40;;;;;;;1.29;100.00;103135.56;4977722;28;20092;-89
2023/04/03 06:13:20;;;;;;;6.72;2.65;;;;;;;1.34;100.00;103154.53;4977347;28;20556;-90
2023/04/03 06:15:46;;;;;;;6.50;2.85;;;;;;;1.22;100.00;103130.94;4978566;28;21090;-89
2023/04/03 06:18:11;;;;;;;5.60;2.63;;;;;;;1.49;100.00;103150.22;4979549;28;20026;-89
2023/04/03 06:20:37;;;;;;;6.43;2.63;;;;;;;1.65;100.00;103139.06;4977870;28;20046;-89
2023/04/03 06:23:02;;;;;;;7.10;2.88;;;;;;;1.77;100.00;103149.91;4966498;28;20026;-89
2023/04/03 06:25:28;;;;;;;6.93;2.53;;;;;;;1.78;100.00;103145.66;4977605;28;20038;-89
2023/04/03 06:27:55;;;;;;;5.68;2.90;;;;;;;1.99;100.00;103157.81;4979767;28;20081;-89
2023/04/03 06:30:21;;;;;;;4.60;2.67;;;;;;;3.18;99.88;103155.63;4973960;28;20285;-90
2023/04/03 06:32:46;;;;;;;4.90;2.30;;;;;;;4.19;89.29;103142.72;4964741;28;20081;-90
2023/04/03 06:35:15;;;;;;;5.47;2.50;;;;;;;5.41;84.80;103143.84;4978907;28;20124;-90
2023/04/03 06:37:41;;;;;;;7.43;2.47;;;;;;;6.64;79.63;103153.00;4965585;28;20128;-90
2023/04/03 06:40:10;;;;;;;6.57;2.10;;;;;;;6.60;76.40;103137.41;4977405;28;20525;-89
2023/04/03 06:42:35;;;;;;;9.00;2.25;;;;;;;5.99;76.26;103166.44;4977908;28;20402;-90
2023/04/03 06:45:01;;;;;;;5.03;2.10;;;;;;;5.28;79.77;103146.81;4978290;28;20467;-90
2023/04/03 06:47:27;;;;;;;7.07;2.10;;;;;;;5.14;76.95;103172.06;4978160;28;20034;-89
2023/04/03 06:49:52;;;;;;;7.47;2.63;;;;;;;4.41;79.46;103153.03;4978791;28;20383;-90
2023/04/03 06:52:17;;;;;;;4.30;2.05;;;;;;;4.20;84.00;103165.03;4976848;28;20171;-90
2023/04/03 06:54:43;;;;;;;4.68;2.22;;;;;;;3.99;82.40;103165.03;4979241;28;20343;-89
2023/04/03 06:57:11;;;;;;;5.70;2.08;;;;;;;4.11;84.24;103169.78;4977893;28;20161;-89
2023/04/03 06:59:37;;;;;;;4.72;2.42;;;;;;;4.55;82.95;103184.38;4974584;28;20034;-89
2023/04/03 07:02:02;;;;;;;6.55;2.25;;;;;;;4.65;81.81;103176.19;4975426;28;20576;-89
2023/04/03 07:04:28;;;;;;;7.00;2.28;;;;;;;4.54;82.51;103174.91;4975966;28;20538;-89
2023/04/03 07:06:53;;;;;;;7.18;2.42;;;;;;;4.45;82.11;103182.25;4965120;28;20053;-89
2023/04/03 07:09:19;;;;;;;5.90;2.20;;;;;;;4.53;83.69;103181.75;4979491;28;20030;-89
2023/04/03 07:11:44;;;;;;;8.27;2.60;;;;;;;4.87;83.51;103189.03;4978239;28;20030;-89
2023/04/03 07:14:10;;;;;;;4.40;2.40;;;;;;;4.95;80.59;103190.19;4977438;28;20026;-89
2023/04/03 07:16:36;;;;;;;4.63;2.40;;;;;;;4.71;81.34;103172.16;4976308;28;20042;-89
2023/04/03 07:19:02;;;;;;;6.00;2.00;;;;;;;5.07;81.99;103180.34;4977678;28;20026;-89
2023/04/03 07:21:28;;;;;;;6.13;2.30;;;;;;;5.68;79.15;103173.91;4976341;28;20152;-89
2023/04/03 07:23:54;;;;;;;5.82;2.35;;;;;;;5.69;76.30;103181.69;4957588;28;20115;-89
2023/04/03 07:26:20;;;;;;;5.00;2.40;;;;;;;5.10;76.65;103172.78;4989550;28;20049;-89
2023/04/03 07:28:48;;;;;;;4.45;2.20;;;;;;;4.75;78.51;103181.75;4992115;28;20118;-89
2023/04/03 07:31:14;;;;;;;4.78;2.17;;;;;;;4.86;79.78;103196.69;4961165;28;20093;-89
2023/04/03 07:33:40;;;;;;;5.53;2.03;;;;;;;4.69;78.85;103188.34;4976622;28;20034;-89
2023/04/03 07:36:07;;;;;;;4.72;2.40;;;;;;;4.37;79.99;103194.78;4992221;28;20033;-89
2023/04/03 07:38:35;;;;;;;5.13;1.88;;;;;;;4.25;79.68;103200.31;4975457;28;20518;-89
2023/04/03 07:41:00;;;;;;;9.50;2.47;;;;;;;4.27;80.98;103215.78;4972288;28;20049;-89
2023/04/03 07:43:26;;;;;;;9.48;2.50;;;;;;;4.45;80.19;103221.66;4976981;28;20133;-89
2023/04/03 07:45:52;;;;;;;6.50;2.05;;;;;;;4.19;80.46;103200.09;4991149;28;20031;-89
2023/04/03 07:48:22;;;;;;;7.45;2.42;;;;;;;4.02;82.19;103201.09;4976666;28;20041;-89
2023/04/03 07:50:48;;;;;;;5.60;2.00;;;;;;;4.04;81.22;103211.41;4977117;28;20030;-89
2023/04/03 07:53:14;;;;;;;6.97;2.10;;;;;;;4.33;80.22;103218.59;4977418;28;20463;-89
2023/04/03 07:55:42;;;;;;;6.20;2.60;;;;;;;5.07;78.55;103215.47;4991737;28;20495;-90
2023/04/03 07:58:10;;;;;;;7.35;2.33;;;;;;;5.53;75.49;103199.97;4975150;28;20022;-89
2023/04/03 08:00:36;;;;;;;5.53;1.98;;;;;;;5.92;74.80;103221.09;4978142;28;20458;-89
2023/04/03 08:03:01;;;;;;;6.07;2.22;;;;;;;5.74;73.80;103192.13;4977916;28;20053;-89
2023/04/03 08:05:26;;;;;;;6.10;2.00;;;;;;;5.78;73.37;103191.44;4975951;28;20037;-89
2023/04/03 08:07:52;;;;;;;4.40;2.30;;;;;;;5.88;72.98;103220.13;4977411;28;20093;-89
2023/04/03 08:10:17;;;;;;;6.97;2.30;;;;;;;5.90;72.08;103207.31;4978086;28;20057;-89
2023/04/03 08:12:46;;;;;;;6.65;2.08;;;;;;;5.89;72.85;103201.28;4963702;28;20418;-89
2023/04/03 08:15:11;;;;;;;6.60;1.90;;;;;;;6.14;71.04;103205.53;4977334;28;20136;-89
2023/04/03 08:17:40;;;;;;;7.15;2.22;;;;;;;6.43;68.53;103198.72;4976552;28;20473;-89
2023/04/03 08:20:07;;;;;;;4.80;2.20;;;;;;;6.72;69.28;103207.34;4976886;28;20447;-89
2023/04/03 08:22:33;;;;;;;5.32;1.83;;;;;;;7.33;68.66;103229.75;4976501;28;20513;-89
2023/04/03 08:24:59;;;;;;;4.53;1.88;;;;;;;8.17;65.73;103189.81;4974943;28;20026;-89
2023/04/03 08:27:26;;;;;;;5.65;2.20;;;;;;;9.15;60.43;103205.78;4974566;28;20027;-90
2023/04/03 08:29:52;;;;;;;5.63;2.20;;;;;;;9.89;60.08;103201.13;4977462;28;20030;-92
2023/04/03 08:32:17;;;;;;;4.68;1.85;;;;;;;10.32;55.83;103201.84;4977796;28;20035;-92
2023/04/03 08:34:43;;;;;;;5.95;1.70;;;;;;;10.34;54.89;103200.16;4994470;28;20029;-92
2023/04/03 08:37:09;;;;;;;3.70;1.70;;;;;;;10.14;55.22;103215.34;4958105;28;20418;-92
2023/04/03 08:39:34;;;;;;;4.82;1.90;;;;;;;9.65;54.80;103205.88;4981141;28;20030;-92
2023/04/03 08:42:07;;;;;;;4.50;1.90;;;;;;;9.28;55.78;103232.78;4978882;28;20069;-92
2023/04/03 08:44:45;;;;;;;3.55;1.80;;;;;;;9.09;55.96;103229.81;4968669;28;20034;-92
2023/04/03 08:47:43;;;;;;;4.68;1.63;;;;;;;9.11;56.99;103227.25;4980832;28;20454;-92
2023/04/03 08:50:16;;;;;;;5.43;1.90;;;;;;;9.14;54.47;103209.22;4979356;28;20134;-92
2023/04/03 08:52:47;;;;;;;3.97;1.67;;;;;;;9.49;55.42;103221.13;4980606;28;20092;-92
2023/04/03 08:55:23;;;;;;;3.50;1.77;;;;;;;9.87;52.97;103221.81;4979831;28;20026;-92
2023/04/03 08:57:54;;;;;;;5.13;1.90;;;;;;;9.75;50.53;103213.84;4967344;28;20109;-91
2023/04/03 09:00:25;;;;;;;3.55;1.40;;;;;;;9.56;50.75;103218.63;4980537;28;20152;-91
2023/04/03 09:02:55;;;;;;;4.22;1.45;;;;;;;9.49;47.17;103215.06;4980300;28;20045;-92
2023/04/03 09:05:39;;;;;;;4.55;1.60;;;;;;;9.75;49.97;103210.38;4978262;28;20037;-92
2023/04/03 09:08:19;;;;;;;6.03;1.75;;;;;;;10.07;51.66;103219.56;4981203;28;20049;-92
2023/04/03 09:10:44;;;;;;;2.72;1.42;;;;;;;10.56;43.71;103212.59;4979356;28;20026;-91
2023/04/03 09:13:28;;;;;;;3.70;1.50;;;;;;;10.45;44.22;103221.91;4981082;28;20048;-92
2023/04/03 09:15:56;;;;;;;3.00;1.30;;;;;;;10.54;46.61;103211.69;4979831;28;20252;-91
2023/04/03 09:18:43;;;;;;;2.72;1.20;;;;;;;10.76;45.40;103223.25;4963150;28;20029;-92
2023/04/03 09:21:15;;;;;;;6.85;1.73;;;;;;;9.90;45.47;103229.63;4979971;28;20073;-92
2023/04/03 09:23:47;;;;;;;2.90;1.20;;;;;;;8.95;44.33;103243.28;4979904;28;20410;-92
2023/04/03 09:26:20;;;;;;;2.10;1.10;;;;;;;8.22;45.89;103226.94;4978922;28;20034;-91
2023/04/03 09:28:46;;;;;;;2.55;1.45;;;;;;;7.96;45.47;103215.09;4978990;28;20057;-91
2023/04/03 09:31:20;;;;;;;2.75;1.23;;;;;;;7.78;49.03;103227.56;4963400;28;20360;-92
2023/04/03 09:33:50;;;;;;;4.22;1.00;;;;;;;7.67;47.62;103218.63;4978634;28;20023;-92
2023/04/03 09:36:43;;;;;;;3.15;1.10;;;;;;;7.72;49.09;103219.63;4977857;28;20018;-91
2023/04/03 09:39:20;;;;;;;3.13;1.08;;;;;;;7.58;47.89;103216.69;4978334;28;20026;-92
2023/04/03 09:42:01;;;;;;;3.00;0.80;;;;;;;7.68;46.70;103225.56;4961390;28;20031;-92
2023/04/03 09:44:39;;;;;;;4.38;1.10;;;;;;;7.58;48.73;103208.94;4977442;28;20491;-92
2023/04/03 09:47:37;;;;;;;3.60;1.10;;;;;;;7.64;51.36;103205.66;4978564;28;20030;-93
2023/04/03 09:50:23;;;;;;;3.95;1.00;;;;;;;7.58;49.36;103187.41;4931559;28;20045;-92
2023/04/03 09:52:54;;;;;;;2.88;0.88;;;;;;;7.75;46.67;103197.38;4980977;28;20034;-92
2023/04/03 09:55:28;;;;;;;3.20;1.00;;;;;;;7.63;44.15;103197.06;4977452;28;20088;-92
2023/04/03 09:57:58;;;;;;;;;;;;;;;7.61;43.98;103213.31;4993768;28;20035;-93
2023/04/03 10:00:28;;;;;;;0.93;0.73;;;;;;;7.33;41.64;103197.09;4977437;28;19921;-92
2023/04/03 10:02:57;;;;;;;2.00;0.80;;;;;;;7.18;43.66;103191.50;4979675;28;20034;-91
2023/04/03 10:05:33;;;;;;;0.93;0.60;;;;;;;7.06;42.90;103181.72;4979188;28;20030;-92
2023/04/03 10:08:25;;;;;;;1.38;0.70;;;;;;;7.19;43.13;103198.41;4977305;28;20503;-92
2023/04/03 10:11:06;;;;;;;1.90;0.73;;;;;;;7.14;42.38;103203.47;4979055;28;20034;-92
2023/04/03 10:13:32;;;;;;;1.48;0.70;;;;;;;7.07;41.35;103186.06;4977286;28;20575;-92
2023/04/03 10:16:06;;;;;;;2.10;0.68;;;;;;;7.11;43.17;103169.81;4977959;28;20022;-91
2023/04/03 10:18:35;;;;;;;;;;;;;;;7.40;43.16;103192.97;4963516;28;20591;-92
2023/04/03 10:21:13;;;;;;;0.80;0.63;;;;;;;7.13;40.87;103175.03;4966138;28;20311;-91
2023/04/03 10:23:49;;;;;;;1.63;0.60;;;;;;;7.20;41.45;103184.69;4994513;28;20504;-91
2023/04/03 10:26:33;;;;;;;1.30;0.77;;;;;;;7.34;39.71;103193.69;4978416;28;20027;-91
2023/04/03 10:29:32;;;;;;;2.88;0.77;;;;;;;7.24;38.32;103170.16;4977968;28;20050;-91
2023/04/03 10:32:16;;;;;;;1.10;0.70;;;;;;;7.35;40.46;103181.66;4978835;28;20026;-92
2023/04/03 10:34:46;;;;;;;0.68;0.50;;;;;;;7.35;40.17;103173.94;4978368;28;20034;-93
2023/04/03 10:37:29;;;;;;;2.13;0.65;;;;;;;7.24;42.62;103134.91;4978213;28;20026;-92
2023/04/03 10:40:54;;;;;;;2.72;0.90;;;;;;;7.53;41.19;103164.06;4977584;28;20030;-92
2023/04/03 10:43:31;;;;;;;1.13;0.65;;;;;;;7.39;38.21;103148.22;4978891;28;20611;-92
2023/04/03 10:46:16;;;;;;;1.42;0.60;;;;;;;7.42;39.80;103161.22;4977748;28;20058;-92
2023/04/03 10:48:41;;;;;;;2.50;0.63;;;;;;;7.51;40.04;103150.25;4978650;28;20026;-92
2023/04/03 10:51:46;;;;;;;1.90;0.70;;;;;;;7.58;40.52;103147.00;4977935;28;20061;-92
2023/04/03 10:55:04;;;;;;;1.08;0.70;;;;;;;7.40;38.76;103123.31;4954600;28;20038;-92
2023/04/03 10:57:32;;;;;;;1.45;0.90;;;;;;;7.39;39.84;103140.50;4945088;28;20037;-92
2023/04/03 11:00:05;;;;;;;2.40;0.70;;;;;;;7.34;39.19;103136.06;4958054;28;20047;-91
2023/04/03 11:02:38;;;;;;;1.75;0.90;;;;;;;7.31;40.37;103133.38;4976662;28;20030;-91
2023/04/03 11:05:30;;;;;;;1.35;0.80;;;;;;;7.32;39.42;103128.25;4975207;28;20022;-92
2023/04/03 11:08:04;;;;;;;2.58;1.02;;;;;;;7.51;40.85;103145.97;4975106;28;20060;-91
2023/04/03 11:10:41;;;;;;;5.95;1.00;;;;;;;7.55;39.80;103136.63;4958935;28;20022;-91
2023/04/03 11:13:50;;;;;;;1.58;0.70;;;;;;;7.54;42.31;103133.16;4962307;28;20037;-91
2023/04/03 11:16:41;;;;;;;3.05;0.90;;;;;;;7.62;42.37;103128.19;4904032;29;20489;-92
2023/04/03 11:19:32;;;;;;;2.78;0.95;;;;;;;7.83;42.02;103144.22;4976375;28;20424;-91
2023/04/03 11:22:09;;;;;;;2.25;0.85;;;;;;;7.72;40.15;103109.50;4977132;28;20061;-91
2023/04/03 11:24:39;;;;;;;2.45;0.90;;;;;;;7.79;39.81;103115.69;4976616;28;20041;-91
2023/04/03 11:27:18;;;;;;;1.25;0.90;;;;;;;7.70;39.46;103103.44;4974882;28;20120;-91
2023/04/03 11:29:47;;;;;;;1.50;0.80;;;;;;;7.79;39.47;103121.72;4965647;28;20607;-91
2023/04/03 11:32:18;;;;;;;1.20;0.80;;;;;;;7.83;41.06;103130.44;4977592;28;20061;-91
2023/04/03 11:34:53;;;;;;;3.47;0.90;;;;;;;7.75;39.50;103086.34;4975246;28;20038;-91